Estació meteorològica de Mataró (Maresme, Maresme)

Consulta les dades en temps real de l'estació meteorològica de Mataró





Hora UTC 02:05
Temperatura 25.3 ºC
Sòl 15 cm 24.2 ºC
Humitat 74.2 %
Pressió 1019.7 hPa
Pluja 0.0 mm
Velocitat vent 2.2 km/h
Direcció vent WNW
Radiació solar 0.1 W/m²

Webcam

Dades diàries 2026-09-04



Hora UTC (hivern +1h; estiu +2h)
Temperatura (ºC) Humitat (%) Pressió (hPa) Velocitat vent (km/h) Precipitació (mm) Radiació solar (W/m²)
Hora UTC Aire Sòl 15 cm Humitat Pressió Vel. Dir. Vel. Max Dir. Intent. màx 5 min. Rad. Sol.
00:05 25.3 24.6 77.9 1020.4 17.8 NNW 17.8 NNW 0.0 0.1
00:10 25.4 24.7 77.6 1020.3 18.3 NNW 27.2 NW 0.0 0.1
00:15 25.4 24.7 77.3 1020.2 16.6 NNW 26.1 NNW 0.0 0.1
00:20 25.5 24.8 75.8 1020.3 15.5 NNW 22.2 NW 0.0 0.1
00:25 25.6 24.8 75.4 1020.3 14.3 NNW 25.8 NNW 0.0 0.1
00:30 25.6 24.8 75.1 1020.2 14.2 NNW 21.9 NNW 0.0 0.1
00:35 25.6 24.9 74.7 1020.2 10.5 NNW 18.0 NW 0.0 0.1
00:40 25.6 24.9 74.9 1020.1 12.1 NNW 21.2 NNW 0.0 0.1
00:45 25.6 24.8 74.9 1020.2 12.8 NNW 21.5 NNW 0.0 0.1
00:50 25.6 24.8 75.0 1020.2 14.3 NNW 23.6 NW 0.0 0.1
00:55 25.6 24.8 75.1 1020.1 13.2 NNW 22.9 N 0.0 0.1
01:00 25.7 24.9 74.1 1019.9 15.8 NNW 24.0 N 0.0 0.1
01:05 25.8 24.9 72.5 1019.8 14.6 NNW 24.7 NW 0.0 0.1
01:10 25.9 25.0 71.6 1019.9 12.8 NW 23.3 NNW 0.0 0.1
01:15 25.9 25.0 71.4 1019.8 10.7 NNW 19.4 NNW 0.0 0.1
01:20 25.9 25.0 69.5 1019.9 5.5 NE 13.4 N 0.0 0.1
01:25 25.9 25.0 69.6 1019.9 3.4 NW 11.3 NNW 0.0 0.1
01:30 25.9 24.9 70.6 1019.8 6.7 WNW 11.6 WNW 0.0 0.1
01:35 25.7 24.7 71.1 1019.8 5.1 N 9.2 NNE 0.0 0.1
01:40 25.6 24.5 71.7 1019.9 1.6 NNW 7.4 N 0.0 0.1
01:45 25.5 24.3 72.8 1019.9 5.5 NW 12.7 NNW 0.0 0.1
01:50 25.4 24.1 73.0 1019.8 4.6 N 10.6 N 0.0 0.1
01:55 25.4 24.1 73.0 1019.7 5.9 NNW 9.5 NNW 0.0 0.1
02:00 25.3 24.1 73.4 1019.7 5.6 N 12.0 N 0.0 0.1
02:05 25.3 24.2 74.2 1019.7 2.2 WNW 7.1 NNW 0.0 0.1
Màxima 25.9 25.0 77.9 1020.4 18.3 NNW 27.2 NW 0.0 0.1
Mínima 20 20 69.5 1019.7
Total 0.0